Time;durP1;ratioP1;P1;durP2;ratioP2;P2;SDS_P1;SDS_P2;PMS_P1;PMS_P2;Temp;Humidity;BMP_temperature;BMP_pressure;BME280_temperature;BME280_humidity;BME280_pressure;Samples;Min_cycle;Max_cycle;Signal;HPM_P1;HPM_P2
2022/06/01 00:00:44;;;;;;;;;5.00;3.00;;;;;18.02;68.13;101281.06;4946654;28;45378;-74
2022/06/01 00:03:09;;;;;;;;;2.00;2.00;;;;;17.96;68.50;101283.84;4948406;28;45288;-74
2022/06/01 00:05:35;;;;;;;;;3.00;3.00;;;;;17.95;69.00;101283.81;4946214;28;46419;-73
2022/06/01 00:08:00;;;;;;;;;2.00;2.00;;;;;17.90;68.96;101278.56;4949610;28;45391;-73
2022/06/01 00:10:27;;;;;;;;;4.33;2.00;;;;;17.90;69.04;101291.03;4940631;28;59912;-73
2022/06/01 00:12:54;;;;;;;;;2.00;2.00;;;;;17.89;69.45;101287.47;4947012;28;45467;-73
2022/06/01 00:15:20;;;;;;;;;2.00;2.00;;;;;17.87;69.71;101289.28;4955056;28;45718;-73
2022/06/01 00:17:46;;;;;;;;;3.00;3.00;;;;;17.86;69.58;101291.97;4947554;28;45341;-73
2022/06/01 00:20:11;;;;;;;;;3.00;3.00;;;;;17.85;69.81;101295.56;4943445;28;45296;-73
2022/06/01 00:22:37;;;;;;;;;3.00;2.00;;;;;17.81;70.58;101294.69;4945253;28;45190;-73
2022/06/01 00:25:04;;;;;;;;;2.00;2.00;;;;;17.77;70.21;101293.84;4950421;28;61512;-73
2022/06/01 00:27:30;;;;;;;;;4.00;3.00;;;;;17.73;70.83;101294.75;4946000;28;45502;-74
2022/06/01 00:29:57;;;;;;;;;3.33;1.00;;;;;17.71;70.95;101298.34;4952665;28;45473;-73
2022/06/01 00:32:22;;;;;;;;;3.00;2.00;;;;;17.67;71.36;101293.91;4951067;28;45526;-73
2022/06/01 00:34:48;;;;;;;;;1.00;1.00;;;;;17.64;71.62;101299.31;4947886;28;45656;-74
2022/06/01 00:37:14;;;;;;;;;3.00;3.00;;;;;17.58;72.30;101299.34;4946285;28;57273;-73
2022/06/01 00:39:39;;;;;;;;;2.00;2.00;;;;;17.51;72.48;101299.41;4947684;28;45574;-73
2022/06/01 00:42:17;;;;;;;;;4.00;4.00;;;;;17.47;73.07;101296.78;4946444;28;49213;-73
2022/06/01 00:44:44;;;;;;;;;3.00;3.00;;;;;17.43;72.81;101295.06;4944697;28;46167;-73
2022/06/01 00:47:10;;;;;;;;;4.00;3.00;;;;;17.40;73.29;101293.31;4945898;28;45453;-74
2022/06/01 00:49:37;;;;;;;;;2.67;2.67;;;;;17.40;73.72;101297.75;4942485;28;45411;-73
2022/06/01 00:52:03;;;;;;;;;3.00;3.00;;;;;17.38;73.97;101291.56;4927574;28;45562;-74
2022/06/01 00:54:29;;;;;;;;;2.00;1.00;;;;;17.34;73.91;101290.69;4947131;28;46257;-73
2022/06/01 00:56:58;;;;;;;;;2.00;2.00;;;;;17.29;74.37;101296.06;4942565;28;45403;-73
2022/06/01 00:59:26;;;;;;;;;5.00;3.00;;;;;17.28;74.63;101298.75;4942928;28;45509;-74
2022/06/01 01:01:55;;;;;;;;;4.00;4.00;;;;;17.26;75.07;101300.56;4929778;28;45367;-72
2022/06/01 01:04:22;;;;;;;;;3.00;3.00;;;;;17.21;74.98;101289.06;4951117;28;64837;-74
2022/06/01 01:06:47;;;;;;;;;6.67;3.33;;;;;17.17;75.98;101292.66;4957633;28;45362;-73
2022/06/01 01:09:13;;;;;;;;;4.00;4.00;;;;;17.11;76.25;101290.91;4960877;28;61735;-73
2022/06/01 01:11:42;;;;;;;;;5.00;3.67;;;;;17.06;76.00;101290.06;4971619;28;45592;-74
2022/06/01 01:14:08;;;;;;;;;5.00;4.00;;;;;17.04;76.69;101294.50;4962711;28;46678;-73
2022/06/01 01:16:34;;;;;;;;;3.00;3.00;;;;;17.02;77.23;101293.66;4968655;28;45255;-73
2022/06/01 01:19:01;;;;;;;;;4.33;2.00;;;;;16.97;77.21;101291.00;4962892;28;45489;-74
2022/06/01 01:22:00;;;;;;;;;4.00;4.00;;;;;16.93;77.77;101289.25;4971445;28;45236;-73
2022/06/01 01:24:46;;;;;;;;;4.67;3.33;;;;;16.87;77.72;101286.66;4974159;28;46505;-74
2022/06/01 01:27:11;;;;;;;;;3.00;3.00;;;;;16.84;78.58;101283.13;4963859;28;46550;-73
2022/06/01 01:29:44;;;;;;;;;5.00;4.00;;;;;16.81;78.68;101275.16;4970166;28;45247;-73
2022/06/01 01:32:12;;;;;;;;;5.33;4.00;;;;;16.79;78.79;101276.94;4962850;28;45303;-74
2022/06/01 01:34:39;;;;;;;;;3.00;3.00;;;;;16.76;78.96;101285.84;4970574;28;47374;-73
2022/06/01 01:37:12;;;;;;;;;3.33;3.33;;;;;16.73;79.49;101281.44;4965489;28;45271;-74
2022/06/01 01:39:37;;;;;;;;;6.00;5.00;;;;;16.72;79.41;101276.09;4957845;28;45501;-74
2022/06/01 01:42:04;;;;;;;;;5.00;5.00;;;;;16.71;79.83;101293.00;4964107;28;45305;-74
2022/06/01 01:45:00;;;;;;;;;4.67;3.67;;;;;16.69;79.89;101286.75;4969926;28;46627;-73
2022/06/01 01:47:28;;;;;;;;;6.33;4.00;;;;;16.67;80.28;101285.88;4968082;28;45545;-73
2022/06/01 01:49:53;;;;;;;;;4.67;4.00;;;;;16.63;80.63;101293.03;4960246;28;45458;-73
2022/06/01 01:52:19;;;;;;;;;7.33;5.00;;;;;16.62;80.86;101291.25;4966373;28;45332;-73
2022/06/01 01:54:47;;;;;;;;;6.33;5.00;;;;;16.60;80.70;101293.03;4969860;28;46729;-74
2022/06/01 01:57:31;;;;;;;;;5.00;4.00;;;;;16.57;81.26;101284.19;4967172;28;45451;-73
2022/06/01 02:00:05;;;;;;;;;3.33;3.33;;;;;16.55;80.95;101286.84;4944208;28;45455;-73
2022/06/01 02:02:33;;;;;;;;;4.00;4.00;;;;;16.54;81.69;101281.53;4968878;28;45347;-73
2022/06/01 02:06:08;;;;;;;;;4.00;4.00;;;;;16.52;81.80;101283.31;4967298;28;46675;-73
2022/06/01 02:08:57;;;;;;;;;5.00;5.00;;;;;16.46;82.09;101271.81;4944265;28;45558;-73
2022/06/01 02:14:22;;;;;;;;;4.00;4.00;;;;;16.46;82.71;101270.94;4964472;28;45512;-74
2022/06/01 02:17:10;;;;;;;;;5.67;4.00;;;;;16.44;82.25;101270.91;4970731;28;46496;-74
2022/06/01 02:19:39;;;;;;;;;4.00;4.00;;;;;16.42;82.99;101263.84;4954451;28;45593;-74
2022/06/01 02:22:05;;;;;;;;;4.00;4.00;;;;;16.38;82.99;101264.75;4949485;28;45535;-74
2022/06/01 02:24:31;;;;;;;;;3.67;3.67;;;;;16.37;83.46;101268.31;4956475;28;45640;-73
2022/06/01 02:26:58;;;;;;;;;6.00;5.00;;;;;16.35;83.83;101265.66;4954582;28;60507;-73
2022/06/01 02:29:32;;;;;;;;;5.33;4.00;;;;;16.32;84.00;101262.13;4963541;28;60245;-74
2022/06/01 02:31:58;;;;;;;;;4.33;3.67;;;;;16.30;83.97;101258.56;4968969;28;45382;-73
2022/06/01 02:34:24;;;;;;;;;5.00;4.00;;;;;16.29;84.63;101262.13;4956483;28;45509;-73
2022/06/01 02:36:51;;;;;;;;;4.00;4.00;;;;;16.25;84.29;101258.59;4935096;28;46902;-73
2022/06/01 02:39:16;;;;;;;;;5.00;3.33;;;;;16.22;84.67;101261.28;4944012;28;62754;-73
2022/06/01 02:44:26;;;;;;;;;4.00;4.00;;;;;16.16;85.01;101258.66;4963763;28;45653;-72
2022/06/01 02:46:52;;;;;;;;;5.00;4.00;;;;;16.13;85.64;101263.97;4964966;28;47438;-73
2022/06/01 02:49:17;;;;;;;;;4.00;4.00;;;;;16.09;85.85;101260.47;4959993;28;57246;-72
2022/06/01 02:51:44;;;;;;;;;4.33;4.33;;;;;16.07;86.14;101267.56;4970140;28;45194;-73
2022/06/01 02:54:09;;;;;;;;;5.33;4.00;;;;;16.06;85.94;101255.13;4961044;28;45559;-74
2022/06/01 02:56:34;;;;;;;;;4.00;4.00;;;;;16.04;86.26;101264.94;4962870;28;45857;-72
2022/06/01 02:59:00;;;;;;;;;5.00;5.00;;;;;16.04;85.86;101261.38;4958644;28;59009;-73
2022/06/01 03:01:26;;;;;;;;;4.33;4.33;;;;;16.02;86.59;101257.81;4969346;28;45311;-73
2022/06/01 03:03:53;;;;;;;;;4.00;4.00;;;;;15.98;86.44;101254.31;4968961;28;45357;-73
2022/06/01 03:06:19;;;;;;;;;6.33;4.67;;;;;15.95;86.70;101251.63;4949167;28;47527;-73
2022/06/01 03:08:45;;;;;;;;;6.50;4.25;;;;;15.93;86.79;101258.75;4957202;28;45461;-72
2022/06/01 03:11:11;;;;;;;;;5.00;5.00;;;;;15.90;86.85;101242.78;4969112;28;45164;-73
2022/06/01 03:13:37;;;;;;;;;5.00;5.00;;;;;15.89;87.32;101247.22;4963764;28;45502;-73
2022/06/01 03:16:02;;;;;;;;;4.00;4.00;;;;;15.87;87.22;101250.78;4969451;28;46774;-74
2022/06/01 03:18:28;;;;;;;;;4.00;4.00;;;;;15.85;87.18;101256.13;4964272;28;45576;-73
2022/06/01 03:20:53;;;;;;;;;5.33;5.33;;;;;15.83;88.12;101259.69;4968188;28;45341;-73
2022/06/01 03:23:19;;;;;;;;;6.25;6.00;;;;;15.79;87.71;101265.91;4963488;28;56567;-73
2022/06/01 03:25:44;;;;;;;;;5.00;5.00;;;;;15.76;87.84;101261.47;4966316;28;45549;-73
2022/06/01 03:28:10;;;;;;;;;6.50;5.25;;;;;15.74;88.35;101263.25;4971724;28;45457;-72
2022/06/01 03:30:35;;;;;;;;;4.00;4.00;;;;;15.73;88.47;101265.94;4965816;28;45397;-74
2022/06/01 03:33:01;;;;;;;;;6.00;6.00;;;;;15.69;88.69;101265.94;4950665;28;45605;-73
2022/06/01 03:35:29;;;;;;;;;6.75;6.75;;;;;15.67;89.57;101269.50;4967725;28;51347;-74
2022/06/01 03:37:57;;;;;;;;;5.75;5.75;;;;;15.66;89.27;101270.41;4968494;28;45196;-73
2022/06/01 03:40:23;;;;;;;;;10.50;7.00;;;;;15.64;89.30;101267.72;4965655;28;45520;-73
2022/06/01 03:42:49;;;;;;;;;7.50;5.50;;;;;15.63;90.28;101273.94;4964283;28;45570;-74
2022/06/01 03:47:58;;;;;;;;;5.75;5.75;;;;;15.60;90.25;101276.56;4968589;28;45429;-73
2022/06/01 03:50:24;;;;;;;;;5.00;5.00;;;;;15.58;90.22;101277.47;4969955;28;45284;-74
2022/06/01 03:52:51;;;;;;;;;7.25;6.00;;;;;15.57;90.66;101276.59;4948509;28;45568;-74
2022/06/01 03:55:16;;;;;;;;;7.00;5.00;;;;;15.56;90.92;101279.25;4970013;28;45797;-74
2022/06/01 03:57:42;;;;;;;;;5.50;5.50;;;;;15.57;91.15;101287.22;4969821;28;45393;-74
2022/06/01 04:00:12;;;;;;;;;8.50;5.00;;;;;15.58;91.76;101283.69;4966505;28;47517;-73
2022/06/01 04:02:38;;;;;;;;;5.00;5.00;;;;;15.57;92.13;101289.91;4967654;28;45653;-73
2022/06/01 04:05:04;;;;;;;;;6.00;5.00;;;;;15.57;92.03;101286.34;4968302;28;46767;-73
2022/06/01 04:07:30;;;;;;;;;5.00;5.00;;;;;15.56;92.77;101292.56;4952697;28;45708;-74
2022/06/01 04:09:55;;;;;;;;;8.00;6.75;;;;;15.56;92.97;101293.44;4960043;28;45688;-73
2022/06/01 04:12:20;;;;;;;;;5.75;5.00;;;;;15.59;92.79;101297.88;4967298;28;55823;-73
2022/06/01 04:14:46;;;;;;;;;5.25;5.00;;;;;15.57;92.45;101297.88;4966650;28;46485;-73
2022/06/01 04:17:11;;;;;;;;;5.00;5.00;;;;;15.57;92.75;101295.22;4966931;28;55506;-73
2022/06/01 04:19:36;;;;;;;;;7.00;5.00;;;;;15.57;93.27;101299.66;4965146;28;51343;-73
2022/06/01 04:22:02;;;;;;;;;4.50;4.50;;;;;15.54;93.86;101303.19;4962614;28;45604;-73
2022/06/01 04:24:31;;;;;;;;;5.00;5.00;;;;;15.53;93.84;101305.88;4957187;28;47671;-73
2022/06/01 04:26:57;;;;;;;;;8.50;5.25;;;;;15.50;94.04;101309.44;4950141;28;45294;-73
2022/06/01 04:29:22;;;;;;;;;5.50;5.50;;;;;15.50;95.06;101311.19;4968121;28;45543;-73
2022/06/01 04:31:48;;;;;;;;;7.00;7.00;;;;;15.51;95.42;101312.97;4974692;28;47218;-73
2022/06/01 04:34:13;;;;;;;;;5.25;5.25;;;;;15.48;95.52;101310.31;4959130;28;46915;-74
2022/06/01 04:36:39;;;;;;;;;7.25;5.25;;;;;15.50;96.04;101312.09;4967383;28;45485;-73
2022/06/01 04:39:06;;;;;;;;;4.33;4.33;;;;;15.51;96.06;101319.19;4966995;28;45395;-73
2022/06/01 04:41:32;;;;;;;;;6.33;5.00;;;;;15.53;95.88;101317.41;4970253;28;45438;-74
2022/06/01 04:43:57;;;;;;;;;7.67;6.00;;;;;15.56;96.53;101317.41;4970064;28;45471;-73
2022/06/01 04:46:23;;;;;;;;;9.00;5.25;;;;;15.58;96.11;101317.41;4962743;28;61731;-74
2022/06/01 04:48:48;;;;;;;;;8.75;7.25;;;;;15.59;95.75;101322.72;4958411;28;45252;-73
2022/06/01 04:51:14;;;;;;;;;10.25;8.00;;;;;15.60;95.98;101323.59;4966118;28;50988;-74
2022/06/01 04:53:43;;;;;;;;;6.00;6.00;;;;;15.61;97.19;101320.94;4962161;28;45518;-73
2022/06/01 04:56:10;;;;;;;;;8.50;6.00;;;;;15.61;95.88;101331.59;4958841;28;45387;-73
2022/06/01 04:58:36;;;;;;;;;10.00;7.25;;;;;15.62;95.99;101328.03;4960218;28;45471;-74
2022/06/01 05:01:02;;;;;;;;;7.00;6.25;;;;;15.65;96.10;101337.81;4959181;28;45291;-73
2022/06/01 05:03:27;;;;;;;;;6.67;6.67;;;;;15.65;96.29;101333.38;4965721;28;66659;-74
2022/06/01 05:05:52;;;;;;;;;8.00;6.33;;;;;15.66;96.52;101340.50;4963783;28;60626;-74
2022/06/01 05:08:18;;;;;;;;;8.00;6.00;;;;;15.67;96.22;101339.59;4966916;28;45343;-74
2022/06/01 05:10:43;;;;;;;;;6.00;5.00;;;;;15.70;96.15;101342.25;4967237;28;45597;-74
2022/06/01 05:13:09;;;;;;;;;5.50;4.00;;;;;15.73;96.33;101345.81;4970256;28;46342;-74
2022/06/01 05:15:40;;;;;;;;;5.25;4.75;;;;;15.75;96.45;101349.34;4971809;28;45520;-74
2022/06/01 05:18:09;;;;;;;;;8.00;6.00;;;;;15.78;95.75;101350.22;4971797;28;45393;-74
2022/06/01 05:20:35;;;;;;;;;8.00;6.00;;;;;15.79;95.60;101356.44;4971478;28;45195;-75
2022/06/01 05:23:00;;;;;;;;;6.00;6.00;;;;;15.80;97.47;101352.88;4960123;28;47130;-73
2022/06/01 05:25:26;;;;;;;;;9.00;6.00;;;;;15.85;96.65;101356.41;4956897;28;61842;-73
2022/06/01 05:27:51;;;;;;;;;9.00;6.67;;;;;15.86;96.35;101342.22;4954260;28;46585;-73
2022/06/01 05:30:17;;;;;;;;;8.33;8.33;;;;;15.85;96.28;101336.00;4963436;28;54944;-73
2022/06/01 05:32:42;;;;;;;;;7.50;7.00;;;;;15.86;98.54;101345.75;4959004;28;52798;-74
2022/06/01 05:35:08;;;;;;;;;7.75;6.75;;;;;15.88;96.93;101345.78;4959642;28;61418;-75
2022/06/01 05:37:33;;;;;;;;;9.00;7.67;;;;;15.91;96.42;101345.75;4959384;28;45310;-71
2022/06/01 05:39:58;;;;;;;;;7.33;6.00;;;;;15.95;96.96;101347.53;4959596;28;58112;-71
2022/06/01 05:42:24;;;;;;;;;5.25;5.25;;;;;15.97;96.24;101351.94;4958294;28;63991;-71
2022/06/01 05:44:49;;;;;;;;;6.00;6.00;;;;;16.00;96.09;101339.53;4959327;28;54932;-71
2022/06/01 05:47:14;;;;;;;;;6.00;6.00;;;;;16.03;96.59;101334.16;4961574;28;57850;-71
2022/06/01 05:49:40;;;;;;;;;5.67;5.67;;;;;16.05;96.34;101332.41;4956873;28;45513;-71
2022/06/01 05:52:05;;;;;;;;;4.00;4.00;;;;;16.08;97.77;101343.91;4954759;28;63154;-72
2022/06/01 05:54:31;;;;;;;;;5.67;5.00;;;;;16.08;95.74;101337.69;4956789;28;45423;-72
2022/06/01 05:56:56;;;;;;;;;6.67;5.33;;;;;16.11;96.38;101338.59;4957568;28;54295;-72
2022/06/01 05:59:21;;;;;;;;;7.33;6.00;;;;;16.12;96.39;101332.34;4959542;28;45416;-72
2022/06/01 06:01:47;;;;;;;;;6.67;5.67;;;;;16.16;96.26;101335.91;4961335;28;45521;-75
2022/06/01 06:04:12;;;;;;;;;6.67;5.00;;;;;16.20;96.02;101337.69;4960913;28;60175;-75
2022/06/01 06:06:37;;;;;;;;;8.00;5.00;;;;;16.23;96.32;101343.84;4956856;28;45888;-74
2022/06/01 06:09:05;;;;;;;;;5.00;5.00;;;;;16.26;95.99;101342.09;4956145;28;47124;-75
2022/06/01 06:11:33;;;;;;;;;10.00;7.67;;;;;16.30;96.25;101344.75;4959489;28;47526;-74
2022/06/01 06:13:59;;;;;;;;;5.67;5.00;;;;;16.33;95.60;101354.50;4926451;28;46509;-74
2022/06/01 06:16:25;;;;;;;;;3.67;3.67;;;;;16.35;96.30;101353.59;4954111;28;45497;-74
2022/06/01 06:18:55;;;;;;;;;7.00;6.00;;;;;16.37;95.39;101348.25;4961674;28;45558;-74
2022/06/01 06:21:21;;;;;;;;;9.00;6.67;;;;;16.39;95.75;101339.34;4961175;28;45827;-76
2022/06/01 06:23:46;;;;;;;;;6.33;6.33;;;;;16.44;95.21;101342.88;4960653;28;45892;-74
2022/06/01 06:26:12;;;;;;;;;5.00;5.00;;;;;16.46;94.79;101340.22;4962196;28;48819;-75
2022/06/01 06:28:38;;;;;;;;;6.33;5.00;;;;;16.51;94.75;101349.06;4953782;28;45466;-74
2022/06/01 06:31:04;;;;;;;;;5.00;5.00;;;;;16.56;94.60;101343.69;4943122;28;45820;-74
2022/06/01 06:33:29;;;;;;;;;5.00;5.00;;;;;16.61;93.67;101340.13;4941016;28;45493;-76
2022/06/01 06:35:57;;;;;;;;;4.33;3.00;;;;;16.66;92.83;101342.75;4957166;28;45672;-75
2022/06/01 06:38:23;;;;;;;;;4.00;3.00;;;;;16.69;91.91;101340.09;4956197;28;45508;-76
2022/06/01 06:40:48;;;;;;;;;5.00;3.00;;;;;16.73;91.62;101339.22;4956697;28;45495;-79
2022/06/01 06:43:13;;;;;;;;;2.33;2.00;;;;;16.77;91.20;101348.94;4957886;28;45338;-79
2022/06/01 06:45:39;;;;;;;;;5.00;5.00;;;;;16.81;90.99;101349.81;4954545;28;45480;-79
2022/06/01 06:48:05;;;;;;;;;4.33;4.33;;;;;16.85;90.66;101355.13;4956483;28;54429;-80
2022/06/01 06:50:30;;;;;;;;;6.67;5.33;;;;;16.89;90.64;101353.34;4956816;28;46063;-80
2022/06/01 06:52:55;;;;;;;;;3.00;3.00;;;;;16.90;90.22;101355.09;4956801;28;45410;-80
2022/06/01 06:55:20;;;;;;;;;4.67;4.00;;;;;16.90;90.04;101356.00;4955668;28;49673;-78
2022/06/01 06:57:46;;;;;;;;;5.67;5.67;;;;;16.94;90.34;101365.75;4963808;28;47060;-79
2022/06/01 07:00:12;;;;;;;;;4.33;4.33;;;;;16.96;90.44;101349.72;4962030;28;63488;-79
2022/06/01 07:02:38;;;;;;;;;9.00;5.00;;;;;16.99;90.20;101353.28;4940945;28;45580;-80
2022/06/01 07:05:03;;;;;;;;;4.00;3.00;;;;;17.02;91.24;101355.91;4951509;28;45296;-79
2022/06/01 07:07:29;;;;;;;;;6.00;5.00;;;;;17.06;90.01;101362.09;4962976;28;45454;-80
2022/06/01 07:09:54;;;;;;;;;6.33;6.33;;;;;17.10;90.03;101354.94;4968902;28;58000;-79
2022/06/01 07:12:19;;;;;;;;;7.67;5.67;;;;;17.11;89.84;101360.28;4962129;28;58135;-79
2022/06/01 07:14:45;;;;;;;;;6.00;6.00;;;;;17.11;90.00;101357.63;4964616;28;49711;-79
2022/06/01 07:17:10;;;;;;;;;5.00;5.00;;;;;17.15;90.61;101359.38;4963438;28;45501;-79
2022/06/01 07:19:36;;;;;;;;;5.67;5.00;;;;;17.21;89.78;101358.44;4966417;28;45515;-79
2022/06/01 07:22:01;;;;;;;;;10.67;5.00;;;;;17.25;89.47;101360.16;4960368;28;57760;-80
2022/06/01 07:24:26;;;;;;;;;6.00;5.00;;;;;17.32;89.50;101355.69;4957430;28;45702;-80
2022/06/01 07:26:52;;;;;;;;;5.00;4.00;;;;;17.35;89.25;101353.84;4952965;28;48826;-79
2022/06/01 07:29:23;;;;;;;;;7.00;6.00;;;;;17.39;89.44;101352.06;4953238;28;46529;-80
2022/06/01 07:31:50;;;;;;;;;5.33;4.00;;;;;17.46;88.97;101364.44;4956851;28;45010;-80
2022/06/01 07:34:15;;;;;;;;;6.00;5.00;;;;;17.51;88.60;101367.97;4936532;28;45582;-80
2022/06/01 07:36:41;;;;;;;;;4.33;4.33;;;;;17.54;88.29;101363.47;4951588;28;45497;-79
2022/06/01 07:44:46;;;;;;;;;7.00;6.00;;;;;17.63;88.41;101367.88;4962870;28;45452;-79
2022/06/01 07:47:12;;;;;;;;;6.00;5.00;;;;;17.67;88.25;101366.91;4960345;28;45470;-80
2022/06/01 07:49:38;;;;;;;;;5.67;5.67;;;;;17.72;88.55;101373.13;4961742;28;45790;-80
2022/06/01 07:52:04;;;;;;;;;7.00;5.67;;;;;17.76;88.25;101366.88;4959185;28;45330;-79
2022/06/01 07:54:30;;;;;;;;;7.00;5.00;;;;;17.82;88.53;101370.38;4963297;28;45545;-80
2022/06/01 07:56:55;;;;;;;;;6.00;4.00;;;;;17.86;88.01;101362.31;4962131;28;54309;-79
2022/06/01 07:59:21;;;;;;;;;7.00;5.00;;;;;17.88;87.92;101365.84;4957410;28;49480;-80
2022/06/01 08:01:46;;;;;;;;;4.00;4.00;;;;;17.90;87.90;101371.19;4966542;28;55594;-79
2022/06/01 08:04:12;;;;;;;;;3.00;3.00;;;;;17.89;88.46;101356.94;4968592;28;45951;-79
2022/06/01 08:06:38;;;;;;;;;5.67;3.33;;;;;17.90;88.20;101363.19;4967537;28;45629;-79
2022/06/01 08:09:05;;;;;;;;;3.00;3.00;;;;;17.93;87.69;101366.69;4960649;28;46455;-79
2022/06/01 08:14:15;;;;;;;;;2.67;2.00;;;;;18.02;87.31;101360.38;4972225;28;45512;-79
2022/06/01 08:16:41;;;;;;;;;4.00;2.67;;;;;18.08;86.85;101357.63;4961015;28;45625;-79
2022/06/01 08:19:08;;;;;;;;;2.00;2.00;;;;;18.11;86.68;101354.00;4965139;28;46582;-79
2022/06/01 08:21:35;;;;;;;;;3.00;2.00;;;;;18.17;87.17;101370.88;4966503;28;45167;-80
2022/06/01 08:24:00;;;;;;;;;6.00;2.00;;;;;18.22;86.96;101363.69;4970094;28;45203;-79
2022/06/01 08:26:25;;;;;;;;;2.00;2.00;;;;;18.24;87.08;101361.88;4962188;28;45940;-79
2022/06/01 08:28:51;;;;;;;;;2.00;2.00;;;;;18.27;86.67;101353.84;4973394;28;45255;-79
2022/06/01 08:31:16;;;;;;;;;4.00;4.00;;;;;18.30;86.63;101359.13;4972393;28;59800;-80
2022/06/01 08:33:42;;;;;;;;;4.00;2.00;;;;;18.34;86.34;101349.28;4964029;28;45355;-79
2022/06/01 08:36:07;;;;;;;;;3.67;2.00;;;;;18.36;85.49;101349.25;4965823;28;45549;-78
2022/06/01 08:38:33;;;;;;;;;5.67;3.33;;;;;18.36;85.42;101358.16;4970115;28;45642;-80
2022/06/01 08:41:03;;;;;;;;;5.00;4.00;;;;;18.38;85.46;101360.84;4960825;28;45466;-80
2022/06/01 08:43:35;;;;;;;;;4.00;3.00;;;;;18.38;85.36;101356.38;4949393;28;45454;-80
2022/06/01 08:46:02;;;;;;;;;8.33;3.00;;;;;18.41;85.75;101358.09;4952169;28;45454;-80
2022/06/01 08:48:41;;;;;;;;;5.67;3.33;;;;;18.41;85.21;101350.97;4936394;28;47541;-79
2022/06/01 08:51:06;;;;;;;;;3.00;1.00;;;;;18.44;85.22;101353.63;4959307;28;45322;-80
2022/06/01 08:53:33;;;;;;;;;3.00;3.00;;;;;18.47;85.37;101350.88;4953336;28;45568;-80
2022/06/01 08:56:09;;;;;;;;;4.00;2.00;;;;;18.51;85.65;101352.63;4954565;28;45631;-80
2022/06/01 08:59:13;;;;;;;;;2.00;2.00;;;;;18.56;84.96;101353.44;4954948;28;47630;-78
2022/06/01 09:01:40;;;;;;;;;3.00;1.67;;;;;18.61;84.47;101352.50;4950466;28;45564;-78
2022/06/01 09:04:12;;;;;;;;;4.67;3.00;;;;;18.64;84.57;101347.09;5060406;23;45824;-78
2022/06/01 09:06:54;;;;;;;;;3.67;3.00;;;;;18.69;84.52;101351.50;4981293;28;45425;-79
2022/06/01 09:09:30;;;;;;;;;3.33;3.33;;;;;18.76;83.97;101353.19;4995646;28;46964;-78
2022/06/01 09:11:56;;;;;;;;;3.00;3.00;;;;;18.81;84.02;101351.34;5011898;28;45454;-78
2022/06/01 09:14:35;;;;;;;;;2.00;2.00;;;;;18.87;83.89;101352.16;4996662;28;55616;-78
2022/06/01 09:17:02;;;;;;;;;2.33;1.33;;;;;18.86;83.41;101353.97;4998586;28;45544;-78
2022/06/01 09:22:37;;;;;;;;;4.00;2.00;;;;;18.90;83.17;101358.34;5014346;28;46715;-79
2022/06/01 09:25:01;;;;;;;;;4.00;3.00;;;;;18.98;82.31;101358.25;5016820;28;45389;-79
2022/06/01 09:27:38;;;;;;;;;4.67;1.33;;;;;19.01;81.89;101356.38;5008913;28;45575;-79
2022/06/01 09:30:37;;;;;;;;;3.33;1.67;;;;;19.06;81.61;101356.31;5009473;28;47305;-79
2022/06/01 09:33:15;;;;;;;;;1.33;1.00;;;;;19.17;81.12;101362.38;5017034;28;45440;-79
2022/06/01 09:35:53;;;;;;;;;1.00;1.00;;;;;19.26;80.04;101362.22;4999762;28;45369;-79
2022/06/01 09:38:36;;;;;;;;;2.00;1.33;;;;;19.38;80.30;101356.66;4996065;28;45466;-78
2022/06/01 09:41:06;;;;;;;;;1.00;1.00;;;;;19.57;79.97;101356.38;5016604;28;47489;-78
2022/06/01 09:43:31;;;;;;;;;1.67;1.67;;;;;19.71;79.61;101365.06;5017215;28;45362;-79
2022/06/01 09:45:57;;;;;;;;;0.67;0.67;;;;;19.82;77.15;101365.75;5007734;28;55734;-79
2022/06/01 09:48:35;;;;;;;;;1.67;1.00;;;;;20.00;76.40;101355.59;5029491;28;45476;-78
2022/06/01 09:51:06;;;;;;;;;1.00;0.67;;;;;20.14;76.65;101353.53;4999072;28;46343;-78
2022/06/01 09:53:44;;;;;;;;;3.67;2.00;;;;;20.25;75.54;101351.50;4997690;28;45453;-79
2022/06/01 09:56:10;;;;;;;;;2.00;2.00;;;;;20.31;75.00;101348.69;5014544;28;45354;-79
2022/06/01 10:07:01;;;;;;;;;3.33;3.33;;;;;20.33;73.83;101349.53;5014262;28;45447;-78
2022/06/01 10:09:29;;;;;;;;;1.00;1.00;;;;;20.34;74.36;101351.28;4994704;28;45357;-77
2022/06/01 10:11:54;;;;;;;;;3.67;3.67;;;;;20.35;74.02;101355.78;4998723;28;47403;-78
2022/06/01 10:14:32;;;;;;;;;3.00;2.00;;;;;20.30;73.93;101354.97;5014647;28;45618;-79
2022/06/01 10:17:14;;;;;;;;;2.00;2.00;;;;;20.23;74.22;101347.97;5013956;28;47190;-76
2022/06/01 10:19:57;;;;;;;;;2.33;2.00;;;;;20.23;74.25;101347.06;5014179;28;45632;-75
2022/06/01 10:22:36;;;;;;;;;1.00;1.00;;;;;20.26;74.51;101350.59;5013645;28;46495;-72
2022/06/01 10:25:12;;;;;;;;;1.33;1.33;;;;;20.36;74.23;101335.19;5015135;28;45466;-73
2022/06/01 10:27:48;;;;;;;;;1.67;1.67;;;;;20.45;73.90;101340.34;5015270;28;45482;-74
2022/06/01 10:30:27;;;;;;;;;2.33;2.33;;;;;20.49;72.45;101334.03;5015699;28;45377;-74
2022/06/01 10:33:08;;;;;;;;;1.00;1.00;;;;;20.50;73.09;101341.16;4997240;28;46868;-74
2022/06/01 10:35:44;;;;;;;;;3.00;1.33;;;;;20.48;72.07;101336.75;5013707;28;45801;-73
2022/06/01 10:38:29;;;;;;;;;1.33;1.33;;;;;20.45;71.89;101342.13;4998100;28;45437;-73
2022/06/01 10:40:57;;;;;;;;;3.67;2.00;;;;;20.46;71.44;101338.56;4998619;28;45456;-74
2022/06/01 10:44:00;;;;;;;;;1.00;1.00;;;;;20.54;71.73;101331.25;5014897;28;46740;-76
2022/06/01 10:46:55;;;;;;;;;2.00;2.00;;;;;20.54;71.27;101336.63;5009656;28;45467;-76
2022/06/01 10:49:39;;;;;;;;;0.67;0.67;;;;;20.46;69.70;101334.13;5011540;28;45416;-75
2022/06/01 10:52:16;;;;;;;;;2.67;2.00;;;;;20.45;70.15;101329.59;5014621;28;45567;-76
2022/06/01 10:55:01;;;;;;;;;1.00;1.00;;;;;20.52;70.14;101320.56;4991773;28;47498;-75
2022/06/01 10:57:26;;;;;;;;;1.33;1.00;;;;;20.57;68.89;101326.72;5015083;28;45468;-76
2022/06/01 10:59:52;;;;;;;;;2.00;2.00;;;;;20.64;70.38;101331.00;4997644;28;45429;-77
2022/06/01 11:02:39;;;;;;;;;2.00;1.00;;;;;20.69;68.37;101330.03;4999308;28;45479;-74
2022/06/01 11:05:14;;;;;;;;;2.00;2.00;;;;;20.76;68.36;101327.16;5008218;28;47729;-75
2022/06/01 11:08:00;;;;;;;;;3.00;1.67;;;;;20.88;68.38;101317.97;4995002;28;45390;-75
2022/06/01 11:10:50;;;;;;;;;2.00;2.00;;;;;21.08;69.31;101315.66;5014919;28;45519;-75
2022/06/01 11:13:31;;;;;;;;;2.00;2.00;;;;;21.31;68.64;101315.13;5019059;28;45396;-75
2022/06/01 11:16:21;;;;;;;;;2.00;1.00;;;;;21.35;68.04;101314.09;5014810;28;46818;-75
2022/06/01 11:18:46;;;;;;;;;1.00;1.00;;;;;21.34;68.25;101311.47;5017381;28;45806;-75
2022/06/01 11:21:18;;;;;;;;;1.00;1.00;;;;;21.31;67.79;101315.13;5022402;28;45274;-76
2022/06/01 11:24:20;;;;;;;;;2.00;2.00;;;;;21.36;67.65;101305.13;5018078;28;45930;-75
2022/06/01 11:26:59;;;;;;;;;1.67;1.67;;;;;21.43;65.43;101306.72;5017934;28;47455;-75
2022/06/01 11:29:58;;;;;;;;;3.00;1.67;;;;;21.51;66.41;101308.31;5016396;28;45490;-74
2022/06/01 11:32:40;;;;;;;;;1.33;1.33;;;;;21.49;64.85;101303.00;5005426;28;45412;-74
2022/06/01 11:35:29;;;;;;;;;1.00;1.00;;;;;21.53;63.12;101301.13;4997530;28;45465;-77
2022/06/01 11:37:57;;;;;;;;;1.00;1.00;;;;;21.59;64.00;101293.78;5014715;28;46645;-76
2022/06/01 11:40:45;;;;;;;;;1.00;1.00;;;;;21.65;63.92;101304.34;5016712;28;46548;-77
2022/06/01 11:43:31;;;;;;;;;1.00;1.00;;;;;21.73;62.24;101297.88;5000300;28;45484;-76
2022/06/01 11:46:12;;;;;;;;;1.00;1.00;;;;;21.87;61.58;101298.38;5016029;28;45587;-73
2022/06/01 11:48:44;;;;;;;;;1.00;1.00;;;;;21.96;59.30;101295.44;5011406;28;45497;-73
2022/06/01 11:51:18;;;;;;;;;1.00;1.00;;;;;22.05;57.77;101289.78;5009234;28;45356;-76
2022/06/01 11:54:16;;;;;;;;;1.00;1.00;;;;;22.10;59.03;101284.25;4984713;28;45575;-75
2022/06/01 11:56:59;;;;;;;;;3.00;1.67;;;;;22.15;58.98;101285.91;5007929;28;45418;-74
2022/06/01 11:59:28;;;;;;;;;4.00;2.00;;;;;22.17;57.15;101278.69;5009322;28;46520;-75
2022/06/01 12:02:50;;;;;;;;;1.67;1.00;;;;;22.22;57.92;101276.75;5010874;28;45521;-76
2022/06/01 12:05:23;;;;;;;;;1.00;1.00;;;;;22.37;56.23;101277.19;5010235;28;45440;-76